createdAt,value
2018-10-11T00:04:26.734Z,19.45
2018-10-11T00:09:30.149Z,17.90
2018-10-11T00:14:33.923Z,19.10
2018-10-11T00:19:37.570Z,17.07
2018-10-11T00:24:40.997Z,18.53
2018-10-11T00:29:44.723Z,17.40
2018-10-11T00:34:48.142Z,19.27
2018-10-11T00:39:52.525Z,19.40
2018-10-11T00:44:55.924Z,16.55
2018-10-11T00:49:59.505Z,18.32
2018-10-11T00:55:05.025Z,17.32
2018-10-11T01:00:08.808Z,18.90
2018-10-11T01:05:13.236Z,22.83
2018-10-11T01:10:16.715Z,19.30
2018-10-11T01:15:20.832Z,18.50
2018-10-11T01:20:24.991Z,16.77
2018-10-11T01:25:28.592Z,17.10
2018-10-11T01:30:32.886Z,20.55
2018-10-11T01:35:37.340Z,19.83
2018-10-11T01:40:41.619Z,20.73
2018-10-11T01:45:45.014Z,20.32
2018-10-11T01:50:48.449Z,18.65
2018-10-11T01:55:52.004Z,21.20
2018-10-11T02:00:57.048Z,19.12
2018-10-11T02:06:02.404Z,23.22
2018-10-11T02:11:05.892Z,20.43
2018-10-11T02:16:09.444Z,22.73
2018-10-11T02:21:13.444Z,21.07
2018-10-11T02:26:18.423Z,20.57
2018-10-11T02:31:21.774Z,19.45
2018-10-11T02:36:25.327Z,20.37
2018-10-11T02:41:29.757Z,20.12
2018-10-11T02:46:33.854Z,22.58
2018-10-11T02:51:37.277Z,21.73
2018-10-11T02:56:41.039Z,21.80
2018-10-11T03:01:44.504Z,22.50
2018-10-11T03:06:48.866Z,22.00
2018-10-11T03:11:53.251Z,21.50
2018-10-11T03:16:58.232Z,20.12
2018-10-11T03:22:01.657Z,19.60
2018-10-11T03:27:05.033Z,22.60
2018-10-11T03:32:08.464Z,21.90
2018-10-11T03:37:11.957Z,20.00
2018-10-11T03:42:15.376Z,19.20
2018-10-11T03:47:18.888Z,22.47
2018-10-11T03:52:22.393Z,22.90
2018-10-11T03:57:26.623Z,21.70
2018-10-11T04:02:30.084Z,24.13
2018-10-11T04:07:33.810Z,21.20
2018-10-11T04:12:37.941Z,12.25
2018-10-11T04:17:48.790Z,16.30
2018-10-11T04:22:52.331Z,16.70
2018-10-11T04:27:56.218Z,19.00
2018-10-11T04:32:59.658Z,20.88
2018-10-11T04:38:03.184Z,26.50
2018-10-11T04:43:06.733Z,25.80
2018-10-11T04:48:10.165Z,27.25
2018-10-11T04:53:14.602Z,25.23
2018-10-11T04:58:21.424Z,26.23
2018-10-11T05:03:24.902Z,29.72
2018-10-11T05:08:28.478Z,26.17
2018-10-11T05:13:39.119Z,33.13
2018-10-11T05:18:46.155Z,27.67
2018-10-11T05:23:49.735Z,29.37
2018-10-11T05:28:53.203Z,33.53
2018-10-11T05:33:56.707Z,27.77
2018-10-11T05:39:00.268Z,32.15
2018-10-11T05:44:03.787Z,27.65
2018-10-11T05:49:07.300Z,28.65
2018-10-11T05:54:10.960Z,27.97
2018-10-11T05:59:14.378Z,28.53
2018-10-11T06:04:18.095Z,28.20
2018-10-11T06:09:21.708Z,31.20
2018-10-11T06:14:25.892Z,30.90
2018-10-11T06:19:31.149Z,27.67
2018-10-11T06:24:38.419Z,26.20
2018-10-11T06:29:45.558Z,30.30
2018-10-11T06:34:49.113Z,30.17
2018-10-11T06:39:52.810Z,25.02
2018-10-11T06:44:57.243Z,24.40
2018-10-11T06:50:01.786Z,30.62
2018-10-11T06:55:05.828Z,26.80
2018-10-11T07:00:11.162Z,25.95
2018-10-11T07:05:14.680Z,27.00
2018-10-11T07:10:19.455Z,28.67
2018-10-11T07:15:22.992Z,27.65
2018-10-11T07:20:26.505Z,28.25
2018-10-11T07:25:30.438Z,26.20
2018-10-11T07:30:33.855Z,24.80
2018-10-11T07:35:37.452Z,23.95
2018-10-11T07:40:43.312Z,23.02
2018-10-11T07:45:46.934Z,23.67
2018-10-11T07:50:52.221Z,22.87
2018-10-11T07:55:55.692Z,23.37
2018-10-11T08:01:02.110Z,24.90
2018-10-11T08:06:05.644Z,24.07
2018-10-11T08:11:09.282Z,22.67
2018-10-11T08:16:14.368Z,22.35
2018-10-11T08:21:18.679Z,20.23
2018-10-11T08:26:24.441Z,21.23
2018-10-11T08:31:31.137Z,20.88
2018-10-11T08:36:35.650Z,20.50
2018-10-11T08:41:40.222Z,19.77
2018-10-11T08:57:50.728Z,19.60
2018-10-11T09:02:54.959Z,18.87
2018-10-11T09:36:02.452Z,17.37
2018-10-11T09:41:06.345Z,16.48
2018-10-11T09:46:25.772Z,17.10
2018-10-11T09:51:29.240Z,15.65
2018-10-11T10:02:58.154Z,16.37
2018-10-11T10:08:04.970Z,16.23
2018-10-11T10:13:08.290Z,16.77
2018-10-11T10:18:11.644Z,16.73
2018-10-11T10:23:14.932Z,16.50
2018-10-11T10:28:18.802Z,16.93
2018-10-11T10:33:23.360Z,14.10
2018-10-11T10:38:26.676Z,17.10
2018-10-11T10:43:29.972Z,14.85
2018-10-11T10:48:33.258Z,14.58
2018-10-11T10:53:36.698Z,16.15
2018-10-11T10:58:40.114Z,14.73
2018-10-11T11:03:43.446Z,14.73
2018-10-11T11:08:46.804Z,13.85
2018-10-11T11:13:50.746Z,14.60
2018-10-11T11:18:57.635Z,14.40
2018-10-11T11:24:00.981Z,13.40
2018-10-11T11:29:04.414Z,13.67
2018-10-11T11:34:07.676Z,14.50
2018-10-11T11:39:11.069Z,13.43
2018-10-11T11:44:14.434Z,14.00
2018-10-11T11:49:22.586Z,13.20
2018-10-11T11:54:26.709Z,13.10
2018-10-11T11:59:33.900Z,12.40
2018-10-11T12:04:37.417Z,11.93
2018-10-11T12:09:40.938Z,12.70
2018-10-11T12:14:44.364Z,12.60
2018-10-11T12:19:47.766Z,12.93
2018-10-11T12:24:51.112Z,12.80
2018-10-11T12:29:54.398Z,12.43
2018-10-11T12:34:57.772Z,11.15
2018-10-11T12:40:01.101Z,11.87
2018-10-11T12:45:04.584Z,11.07
2018-10-11T12:50:08.960Z,12.10
2018-10-11T12:55:12.266Z,12.10
2018-10-11T13:00:16.539Z,12.98
2018-10-11T13:05:19.894Z,12.58
2018-10-11T13:10:23.161Z,14.27
2018-10-11T13:15:26.492Z,11.30
2018-10-11T13:20:29.779Z,12.13
2018-10-11T13:25:33.116Z,12.23
2018-10-11T13:30:36.433Z,12.05
2018-10-11T13:35:39.744Z,12.10
2018-10-11T13:40:43.203Z,13.15
2018-10-11T13:45:46.486Z,13.22
2018-10-11T13:50:49.910Z,13.35
2018-10-11T13:55:56.671Z,15.93
2018-10-11T14:00:56.483Z,14.15
2018-10-11T14:05:59.857Z,13.90
2018-10-11T14:11:03.134Z,15.20
2018-10-11T14:16:06.522Z,15.40
2018-10-11T14:21:09.991Z,15.90
2018-10-11T14:26:13.316Z,16.77
2018-10-11T14:31:16.543Z,14.80
2018-10-11T14:36:20.474Z,15.10
2018-10-11T14:41:23.680Z,15.20
2018-10-11T14:46:27.745Z,13.98
2018-10-11T14:51:31.120Z,14.95
2018-10-11T14:56:34.373Z,12.98
2018-10-11T15:01:37.692Z,13.38
2018-10-11T15:06:41.027Z,13.38
2018-10-11T15:11:44.398Z,13.13
2018-10-11T15:16:47.669Z,10.73
2018-10-11T15:21:50.985Z,12.70
2018-10-11T15:26:54.336Z,11.75
2018-10-11T15:31:57.660Z,13.10
2018-10-11T15:37:01.052Z,13.00
2018-10-11T15:42:04.525Z,11.25
2018-10-11T15:52:45.437Z,11.95
2018-10-11T15:57:48.848Z,11.73
2018-10-11T16:03:10.680Z,11.93
2018-10-11T16:08:16.085Z,12.30
2018-10-11T16:13:19.600Z,15.10
2018-10-11T16:18:23.109Z,14.13
2018-10-11T16:23:26.794Z,13.45
2018-10-11T16:28:31.322Z,14.40
2018-10-11T16:33:34.825Z,14.63
2018-10-11T16:38:38.349Z,17.25
2018-10-11T16:43:41.795Z,13.60
2018-10-11T16:48:45.177Z,13.43
2018-10-11T16:53:49.333Z,14.80
2018-10-11T16:58:52.817Z,15.03
2018-10-11T17:03:56.493Z,16.07
2018-10-11T17:09:12.640Z,16.60
2018-10-11T17:14:17.014Z,17.67
2018-10-11T17:19:23.183Z,16.90
2018-10-11T17:24:33.640Z,18.75
2018-10-11T17:29:38.270Z,16.83
2018-10-11T17:34:41.694Z,18.55
2018-10-11T17:39:45.061Z,15.23
2018-10-11T17:44:50.707Z,14.60
2018-10-11T17:55:15.607Z,14.20
2018-10-11T18:00:19.717Z,14.00
2018-10-11T18:05:24.138Z,15.43
2018-10-11T18:10:28.383Z,13.30
2018-10-11T18:15:32.750Z,13.93
2018-10-11T18:20:36.177Z,15.88
2018-10-11T18:25:39.940Z,15.20
2018-10-11T18:30:44.619Z,15.10
2018-10-11T18:35:50.488Z,21.70
2018-10-11T18:40:54.226Z,17.70
2018-10-11T18:45:59.114Z,17.07
2018-10-11T18:51:04.982Z,15.75
2018-10-11T18:56:12.292Z,20.10
2018-10-11T19:01:29.799Z,20.02
2018-10-11T19:06:33.443Z,22.90
2018-10-11T19:11:36.853Z,21.27
2018-10-11T19:16:40.654Z,20.43
2018-10-11T19:21:44.036Z,21.68
2018-10-11T19:26:50.624Z,29.57
2018-10-11T19:31:54.073Z,28.92
2018-10-11T19:36:57.389Z,21.57
2018-10-11T19:42:00.820Z,18.00
2018-10-11T19:47:04.233Z,22.17
2018-10-11T19:52:07.641Z,21.00
2018-10-11T19:57:11.125Z,21.05
2018-10-11T20:02:14.662Z,21.75
2018-10-11T20:07:18.049Z,24.67
2018-10-11T20:12:21.497Z,21.80
2018-10-11T20:17:24.992Z,22.10
2018-10-11T20:22:28.223Z,21.53
2018-10-11T20:27:33.844Z,20.57
2018-10-11T20:32:37.257Z,20.12
2018-10-11T20:37:40.667Z,22.10
2018-10-11T20:42:44.112Z,22.22
2018-10-11T20:47:47.542Z,19.73
2018-10-11T20:52:50.865Z,23.12
2018-10-11T20:57:54.160Z,20.37
2018-10-11T21:02:57.564Z,18.83
2018-10-11T21:08:03.448Z,23.60
2018-10-11T21:57:50.714Z,16.32
2018-10-11T22:02:57.476Z,16.20
2018-10-11T22:08:01.117Z,20.68
2018-10-11T22:13:04.408Z,18.12
2018-10-11T22:18:07.685Z,18.23
2018-10-11T22:23:10.953Z,18.15
2018-10-11T22:28:14.246Z,19.60
2018-10-11T22:33:17.554Z,28.15
2018-10-11T22:38:20.855Z,23.02
2018-10-11T22:43:24.244Z,27.02
2018-10-11T22:48:28.680Z,29.27
2018-10-11T22:53:32.016Z,36.08
2018-10-11T22:58:35.316Z,28.35
2018-10-11T23:03:38.579Z,24.80
2018-10-11T23:08:41.864Z,24.55
2018-10-11T23:13:45.184Z,22.73
2018-10-11T23:18:48.581Z,23.95
2018-10-11T23:23:51.833Z,23.50
2018-10-11T23:28:55.064Z,22.87
2018-10-11T23:33:58.447Z,22.77
2018-10-11T23:39:01.711Z,21.40
2018-10-11T23:44:04.953Z,23.05
2018-10-11T23:49:09.303Z,21.23
2018-10-11T23:54:12.548Z,21.77
2018-10-11T23:59:15.820Z,21.37
